Carrot River, Canada
Current Conditions -  °F | °C
As of 1:00 PM on Saturday 25 Oct 2014 (Local Time) from CYBU Reporting Station
Broken Clouds Broken Clouds  
Wind Chill: 37°   Ceiling: 3400
Heat Index: 45°   Visibility: 9mi
Dew Point: 30°   Wind: 17mph
Humidity: 57%   Direction: 270°W
Pressure: 29.98"   Gusts: 24mph
Location:  53.28°N, 103.58°W
Report Text: CYBU 251900Z AUTO 27015G21KT 9SM BKN034 07/M01 A2998 RMK SLP167
Loading
Personal Weather Stations






























Interactive Weather Map
Tropical Storm Tracking
New forecast layout! Learn more

10-Day Weather Forecast

Advertisements
Track Severe Weather on mobile